Time;durP1;ratioP1;P1;durP2;ratioP2;P2;SDS_P1;SDS_P2;PMS_P1;PMS_P2;Temp;Humidity;BMP_temperature;BMP_pressure;BME280_temperature;BME280_humidity;BME280_pressure;Samples;Min_cycle;Max_cycle;Signal;HPM_P1;HPM_P2
2023/09/30 00:00:27;;;;;;;15.82;7.53;;;;;;;18.84;54.60;98566.75;4488026;31;20164;-76
2023/09/30 00:02:54;;;;;;;15.57;7.43;;;;;;;18.31;56.49;98565.09;4487653;31;20337;-76
2023/09/30 00:05:21;;;;;;;16.08;7.12;;;;;;;18.24;56.17;98564.62;4487875;31;20148;-76
2023/09/30 00:07:48;;;;;;;15.68;7.50;;;;;;;18.88;54.56;98562.97;4487846;31;20151;-76
2023/09/30 00:10:15;;;;;;;15.07;6.12;;;;;;;18.71;54.69;98566.72;4487630;31;20080;-76
2023/09/30 00:12:43;;;;;;;12.95;6.12;;;;;;;18.14;56.32;98568.78;4487225;31;20092;-76
2023/09/30 00:15:10;;;;;;;14.68;6.10;;;;;;;17.78;57.33;98566.78;4487789;32;20126;-76
2023/09/30 00:17:37;;;;;;;19.30;6.60;;;;;;;17.79;57.94;98563.25;4487650;31;20147;-76
2023/09/30 00:20:05;;;;;;;12.07;5.93;;;;;;;18.18;55.99;98563.28;4487773;31;20096;-76
2023/09/30 00:22:32;;;;;;;15.73;6.85;;;;;;;18.50;55.60;98566.38;4487766;31;20113;-76
2023/09/30 00:25:00;;;;;;;11.25;5.43;;;;;;;18.14;56.39;98558.34;4487321;31;20152;-76
2023/09/30 00:27:27;;;;;;;13.27;5.72;;;;;;;18.19;56.13;98549.28;4487537;31;20100;-76
2023/09/30 00:29:54;;;;;;;13.05;5.62;;;;;;;18.12;56.59;98553.22;4487939;31;20146;-76
2023/09/30 00:32:21;;;;;;;11.48;6.00;;;;;;;17.27;59.61;98556.88;4487254;32;20477;-76
2023/09/30 00:34:48;;;;;;;12.43;6.40;;;;;;;18.04;57.34;98552.03;4487795;31;20100;-76
2023/09/30 00:37:16;;;;;;;11.73;5.80;;;;;;;17.56;59.13;98551.63;4487752;31;20465;-76
2023/09/30 00:39:44;;;;;;;12.30;5.72;;;;;;;18.30;56.92;98545.13;4487378;31;20152;-76
2023/09/30 00:42:11;;;;;;;13.88;6.18;;;;;;;18.16;56.91;98543.41;4487720;31;20141;-76
2023/09/30 00:44:38;;;;;;;12.93;5.28;;;;;;;18.00;57.22;98547.97;4487648;31;20416;-76
2023/09/30 00:47:06;;;;;;;14.65;6.25;;;;;;;18.26;55.51;98541.88;4487392;32;20565;-76
2023/09/30 00:49:33;;;;;;;12.45;5.68;;;;;;;17.97;56.45;98545.53;4487693;31;20106;-76
2023/09/30 00:52:02;;;;;;;14.80;6.45;;;;;;;18.16;55.86;98540.78;4487237;31;20513;-76
2023/09/30 00:54:30;;;;;;;15.70;6.78;;;;;;;18.06;55.94;98542.34;4487605;31;20128;-76
2023/09/30 00:56:57;;;;;;;16.23;6.50;;;;;;;17.84;56.77;98538.50;4486403;32;20108;-76
2023/09/30 00:59:26;;;;;;;13.23;6.20;;;;;;;18.02;56.93;98535.66;4487304;31;20112;-76
2023/09/30 01:01:54;;;;;;;15.73;5.95;;;;;;;18.50;55.33;98537.63;4487609;31;20564;-76
2023/09/30 01:04:21;;;;;;;13.90;6.12;;;;;;;18.31;55.90;98546.81;4486489;32;20092;-76
2023/09/30 01:06:48;;;;;;;12.60;6.40;;;;;;;18.60;55.16;98537.81;4486007;32;20097;-76
2023/09/30 01:09:15;;;;;;;18.52;7.22;;;;;;;17.74;57.56;98534.81;4487427;31;20152;-76
2023/09/30 01:11:43;;;;;;;16.02;6.65;;;;;;;17.76;57.57;98538.19;4486349;32;20171;-76
2023/09/30 01:14:34;;;;;;;15.00;6.40;;;;;;;18.18;56.16;98541.53;4485680;32;20099;-76
2023/09/30 01:17:01;;;;;;;15.05;6.25;;;;;;;17.91;56.55;98536.34;4487517;31;20159;-76
2023/09/30 01:19:29;;;;;;;16.62;6.40;;;;;;;17.83;56.26;98547.28;4486239;32;20127;-76
2023/09/30 01:21:59;;;;;;;13.48;5.82;;;;;;;17.94;56.59;98541.38;4486715;31;20154;-76
2023/09/30 01:24:41;;;;;;;11.52;5.90;;;;;;;18.24;55.78;98551.59;4486315;32;20148;-76
2023/09/30 01:27:09;;;;;;;16.77;6.05;;;;;;;17.97;56.37;98553.37;4487087;31;20096;-76
2023/09/30 01:29:38;;;;;;;14.00;6.45;;;;;;;17.53;58.60;98554.41;4473190;32;20105;-76
2023/09/30 01:32:08;;;;;;;15.65;6.43;;;;;;;17.32;59.23;98544.38;4487243;32;20120;-76
2023/09/30 01:34:36;;;;;;;12.13;6.03;;;;;;;17.40;59.00;98545.69;4485795;32;20081;-76
2023/09/30 01:37:03;;;;;;;16.95;6.70;;;;;;;17.77;57.77;98544.25;4487341;31;20447;-76
2023/09/30 01:39:30;;;;;;;13.02;5.82;;;;;;;17.61;58.26;98546.94;4487264;31;20164;-76
2023/09/30 01:41:57;;;;;;;11.68;5.47;;;;;;;18.32;55.36;98540.63;4486823;31;20084;-76
2023/09/30 01:44:25;;;;;;;12.90;5.57;;;;;;;18.27;55.21;98543.53;4487239;31;20119;-76
2023/09/30 01:46:52;;;;;;;13.98;6.55;;;;;;;18.06;55.78;98543.16;4486869;31;20092;-76
2023/09/30 01:49:19;;;;;;;14.35;5.37;;;;;;;18.29;55.07;98532.97;4486798;31;20110;-76
2023/09/30 01:51:46;;;;;;;15.05;6.30;;;;;;;17.86;56.24;98531.44;4487089;31;20088;-76
2023/09/30 01:54:13;;;;;;;15.25;6.45;;;;;;;18.09;56.20;98529.94;4486857;31;20073;-76
2023/09/30 01:56:40;;;;;;;12.70;5.65;;;;;;;18.47;54.70;98529.16;4486747;31;20431;-76
2023/09/30 01:59:07;;;;;;;14.30;6.65;;;;;;;18.62;53.78;98532.53;4487011;32;20089;-76
2023/09/30 02:01:34;;;;;;;13.38;6.22;;;;;;;17.99;55.18;98528.03;4486913;31;20100;-76
2023/09/30 02:04:01;;;;;;;13.38;6.15;;;;;;;17.43;56.57;98527.22;4486515;31;20435;-76
2023/09/30 02:06:28;;;;;;;15.07;6.53;;;;;;;17.62;56.09;98527.75;4485716;32;20103;-76
2023/09/30 02:08:55;;;;;;;13.02;6.18;;;;;;;18.04;54.82;98524.16;4486778;32;20097;-76
2023/09/30 02:11:22;;;;;;;16.10;6.28;;;;;;;18.19;54.83;98524.94;4486416;31;20103;-76
2023/09/30 02:13:49;;;;;;;12.05;5.95;;;;;;;18.06;55.31;98526.66;4486660;32;20102;-76
2023/09/30 02:16:16;;;;;;;16.92;6.45;;;;;;;17.47;56.98;98528.72;4486366;32;20107;-76
2023/09/30 02:18:44;;;;;;;13.50;5.72;;;;;;;17.47;57.46;98537.37;4486738;31;20084;-76
2023/09/30 02:21:12;;;;;;;14.00;6.00;;;;;;;17.50;57.77;98538.97;4486676;31;20088;-76
2023/09/30 02:23:39;;;;;;;12.07;5.40;;;;;;;17.53;57.87;98536.16;4486231;31;20591;-76
2023/09/30 02:26:06;;;;;;;12.10;5.80;;;;;;;17.53;57.62;98523.94;4486529;31;20114;-76
2023/09/30 02:28:34;;;;;;;14.65;6.85;;;;;;;17.54;57.78;98523.00;4486322;32;20134;-76
2023/09/30 02:31:01;;;;;;;12.93;5.50;;;;;;;17.60;57.08;98527.00;4485086;32;20076;-76
2023/09/30 02:33:28;;;;;;;14.43;6.47;;;;;;;17.15;59.06;98521.13;4486380;31;20095;-76
2023/09/30 02:35:55;;;;;;;16.12;6.32;;;;;;;16.95;59.46;98527.56;4487070;32;20092;-76
2023/09/30 02:38:22;;;;;;;14.00;6.00;;;;;;;17.11;59.58;98522.25;4488238;31;20097;-76
2023/09/30 02:40:51;;;;;;;12.23;6.03;;;;;;;16.70;60.62;98530.84;4488603;31;20431;-76
2023/09/30 02:43:18;;;;;;;12.70;6.15;;;;;;;17.46;58.48;98522.66;4488393;31;20117;-76
2023/09/30 02:45:46;;;;;;;13.02;6.25;;;;;;;17.27;58.93;98535.19;4488051;32;20159;-76
2023/09/30 02:48:13;;;;;;;12.15;6.12;;;;;;;17.18;58.75;98528.75;4487443;32;20168;-76
2023/09/30 02:50:44;;;;;;;15.00;6.12;;;;;;;17.33;58.50;98526.97;4488575;31;20090;-76
2023/09/30 02:53:13;;;;;;;13.88;6.75;;;;;;;17.73;57.20;98525.31;4488072;31;20125;-76
2023/09/30 02:55:43;;;;;;;15.15;6.28;;;;;;;17.49;57.99;98529.47;4487294;32;20435;-76
2023/09/30 02:58:10;;;;;;;15.02;5.80;;;;;;;18.10;56.58;98528.16;4488567;31;20100;-76
2023/09/30 03:00:37;;;;;;;13.77;6.25;;;;;;;17.65;57.43;98519.72;4488315;31;20130;-76
2023/09/30 03:03:04;;;;;;;16.05;5.95;;;;;;;18.36;55.40;98519.41;4488362;31;20076;-76
2023/09/30 03:05:34;;;;;;;13.27;6.20;;;;;;;18.16;55.45;98525.13;4488077;31;20132;-76
2023/09/30 03:08:02;;;;;;;11.98;5.80;;;;;;;17.88;56.35;98523.50;4488252;32;20148;-76
2023/09/30 03:10:29;;;;;;;15.95;5.78;;;;;;;17.92;56.02;98519.75;4487131;32;20102;-76
2023/09/30 03:13:01;;;;;;;14.15;6.30;;;;;;;18.01;55.50;98520.94;4487953;31;20092;-76
2023/09/30 03:15:30;;;;;;;12.85;6.37;;;;;;;17.17;57.97;98534.06;4487279;32;20115;-76
2023/09/30 03:17:59;;;;;;;11.88;6.10;;;;;;;17.26;58.76;98536.13;4487153;32;20437;-76
2023/09/30 03:20:27;;;;;;;11.60;5.65;;;;;;;17.16;58.26;98529.78;4487902;31;20457;-76
2023/09/30 03:22:54;;;;;;;12.35;6.15;;;;;;;17.60;57.03;98525.22;4488183;31;20080;-76
2023/09/30 03:25:22;;;;;;;12.35;5.80;;;;;;;17.81;56.23;98530.87;4486987;32;20491;-76
2023/09/30 03:27:49;;;;;;;12.70;5.87;;;;;;;18.09;55.51;98521.25;4486351;32;20160;-76
2023/09/30 03:30:18;;;;;;;12.68;5.50;;;;;;;17.86;55.60;98520.13;4488321;31;20080;-76
2023/09/30 03:32:45;;;;;;;14.35;6.37;;;;;;;17.80;56.26;98521.38;4487003;32;20519;-76
2023/09/30 03:35:16;;;;;;;25.30;6.35;;;;;;;17.68;57.04;98518.69;4487710;32;20168;-76
2023/09/30 03:37:46;;;;;;;13.25;6.15;;;;;;;17.84;56.47;98522.00;4488267;31;20126;-76
2023/09/30 03:40:18;;;;;;;13.85;6.65;;;;;;;17.89;56.71;98526.00;4487038;32;20109;-76
2023/09/30 03:42:49;;;;;;;14.00;6.30;;;;;;;18.10;55.90;98522.94;4487003;31;20088;-76
2023/09/30 03:45:17;;;;;;;15.77;6.32;;;;;;;17.36;57.90;98532.00;4487890;31;20468;-76
2023/09/30 03:47:45;;;;;;;13.77;6.03;;;;;;;17.19;58.98;98527.00;4485984;32;20122;-76
2023/09/30 03:50:13;;;;;;;15.55;6.62;;;;;;;17.08;58.83;98532.03;4487944;31;20171;-76
2023/09/30 03:52:44;;;;;;;14.75;6.53;;;;;;;17.11;58.62;98530.06;4487943;31;20146;-76
2023/09/30 03:55:17;;;;;;;13.52;6.03;;;;;;;17.82;56.78;98526.50;4487728;31;20111;-76
2023/09/30 03:57:48;;;;;;;16.65;6.03;;;;;;;18.31;54.79;98529.34;4487006;32;20108;-76
2023/09/30 04:00:18;;;;;;;17.12;6.07;;;;;;;18.67;53.59;98535.69;4488063;31;20085;-76
2023/09/30 04:02:49;;;;;;;12.60;5.90;;;;;;;18.15;54.65;98526.91;4486516;31;20661;-76
2023/09/30 04:05:17;;;;;;;13.45;5.93;;;;;;;17.94;56.30;98528.31;4487944;31;20143;-76
2023/09/30 04:07:44;;;;;;;17.98;6.53;;;;;;;17.70;57.31;98533.34;4486636;32;20549;-76
2023/09/30 04:10:11;;;;;;;18.17;8.45;;;;;;;17.75;57.03;98522.59;4487654;31;20412;-76
2023/09/30 04:12:38;;;;;;;14.82;7.00;;;;;;;18.06;56.36;98526.66;4487848;31;20084;-76
2023/09/30 04:15:06;;;;;;;13.35;6.78;;;;;;;17.69;57.51;98526.44;4487645;31;20092;-76
2023/09/30 04:17:33;;;;;;;16.08;6.82;;;;;;;18.07;56.01;98528.34;4487594;31;20100;-76
2023/09/30 04:19:59;;;;;;;20.08;7.12;;;;;;;18.10;56.20;98529.00;4487878;32;20084;-76
2023/09/30 04:22:29;;;;;;;15.75;6.07;;;;;;;18.05;56.09;98536.28;4487488;31;20106;-77
2023/09/30 04:24:56;;;;;;;18.45;6.60;;;;;;;17.53;58.27;98530.94;4487801;31;20148;-76
2023/09/30 04:27:23;;;;;;;15.13;6.90;;;;;;;18.45;55.38;98539.72;4487506;31;20153;-76
2023/09/30 04:29:50;;;;;;;12.55;6.35;;;;;;;17.98;56.82;98547.25;4487630;31;20099;-76
2023/09/30 04:32:17;;;;;;;13.90;6.68;;;;;;;18.38;55.25;98534.97;4487706;31;20404;-76
2023/09/30 04:34:45;;;;;;;14.87;7.10;;;;;;;18.36;55.15;98532.47;4486626;32;20137;-76
2023/09/30 04:37:15;;;;;;;15.48;6.40;;;;;;;18.21;55.73;98536.97;4487413;31;20469;-76
2023/09/30 04:39:43;;;;;;;15.30;7.93;;;;;;;18.19;56.50;98535.38;4487764;31;20080;-76
2023/09/30 04:42:11;;;;;;;17.52;7.62;;;;;;;17.94;57.21;98538.75;4487667;31;20085;-76
2023/09/30 04:44:38;;;;;;;14.82;6.80;;;;;;;18.21;56.89;98541.34;4487337;31;20107;-76
2023/09/30 04:47:05;;;;;;;15.05;6.93;;;;;;;18.45;57.34;98537.09;4487722;31;20491;-76
2023/09/30 04:49:32;;;;;;;16.85;6.72;;;;;;;18.35;57.94;98537.81;4487691;31;20152;-76
2023/09/30 04:52:00;;;;;;;16.67;6.72;;;;;;;18.30;58.40;98539.91;4487303;32;20171;-76
2023/09/30 04:54:29;;;;;;;18.60;7.18;;;;;;;18.37;58.33;98542.00;4487657;32;20417;-76
2023/09/30 04:56:56;;;;;;;16.95;7.55;;;;;;;18.23;59.43;98530.78;4487423;31;20093;-76
2023/09/30 04:59:24;;;;;;;16.30;7.32;;;;;;;18.29;60.28;98546.03;4487284;31;20080;-76
2023/09/30 05:01:53;;;;;;;13.90;6.97;;;;;;;17.84;61.87;98543.72;4487553;32;20147;-76
2023/09/30 05:04:20;;;;;;;15.13;6.62;;;;;;;18.11;61.49;98542.88;4487326;31;20087;-76
2023/09/30 05:06:47;;;;;;;13.80;6.60;;;;;;;18.40;59.41;98549.66;4487257;31;20152;-76
2023/09/30 05:09:14;;;;;;;12.40;5.93;;;;;;;18.13;60.11;98554.91;4487517;32;20084;-76
2023/09/30 05:11:41;;;;;;;15.00;6.43;;;;;;;18.76;57.55;98558.59;4487217;31;20435;-76
2023/09/30 05:14:08;;;;;;;12.40;6.20;;;;;;;17.89;59.97;98552.13;4487361;31;20147;-76
2023/09/30 05:16:35;;;;;;;15.52;6.45;;;;;;;18.29;59.59;98556.50;4486266;32;20123;-76
2023/09/30 05:19:03;;;;;;;16.10;6.65;;;;;;;18.34;59.60;98563.09;4487088;31;20101;-76
2023/09/30 05:21:30;;;;;;;13.25;6.18;;;;;;;18.77;58.81;98563.69;4487400;31;20145;-76
2023/09/30 05:23:57;;;;;;;12.35;6.15;;;;;;;18.73;59.50;98570.09;4487327;32;20100;-76
2023/09/30 05:26:24;;;;;;;12.52;5.60;;;;;;;19.20;58.41;98562.53;4486966;31;20454;-76
2023/09/30 05:28:52;;;;;;;12.45;5.50;;;;;;;19.86;56.05;98580.50;4486937;31;20084;-76
2023/09/30 05:31:19;;;;;;;11.65;6.00;;;;;;;20.41;54.70;98588.72;4487273;31;20438;-76
2023/09/30 05:33:48;;;;;;;15.68;6.32;;;;;;;20.18;55.16;98587.78;4486849;31;20508;-76
2023/09/30 05:36:15;;;;;;;12.45;5.72;;;;;;;20.21;54.59;98587.59;4487321;31;20096;-76
2023/09/30 05:38:42;;;;;;;14.60;5.82;;;;;;;20.23;54.94;98590.94;4487262;32;20084;-76
2023/09/30 05:41:08;;;;;;;15.32;5.93;;;;;;;20.59;54.48;98589.16;4486896;32;20103;-76
2023/09/30 05:43:35;;;;;;;14.07;6.30;;;;;;;20.68;54.40;98591.94;4487145;31;20431;-76
2023/09/30 05:46:02;;;;;;;12.82;6.40;;;;;;;20.67;54.55;98594.69;4487049;32;20108;-76
2023/09/30 05:48:31;;;;;;;11.98;6.05;;;;;;;20.74;54.70;98593.28;4486857;31;20088;-76
2023/09/30 05:50:58;;;;;;;12.57;6.28;;;;;;;21.19;53.57;98595.94;4487186;31;20123;-76
2023/09/30 05:53:25;;;;;;;17.73;6.20;;;;;;;21.18;53.42;98605.59;4486851;31;20092;-76
2023/09/30 05:55:54;;;;;;;15.10;5.93;;;;;;;21.16;53.43;98597.03;4486602;31;20084;-76
2023/09/30 05:58:23;;;;;;;14.18;6.45;;;;;;;21.35;52.81;98602.53;4487127;31;20088;-76
2023/09/30 06:00:50;;;;;;;14.05;6.45;;;;;;;21.11;54.13;98603.56;4486692;31;20103;-76
2023/09/30 06:03:17;;;;;;;14.55;6.20;;;;;;;21.30;53.33;98603.84;4486865;31;20100;-76
2023/09/30 06:05:45;;;;;;;12.37;5.87;;;;;;;20.85;54.96;98611.66;4485953;32;20096;-76
2023/09/30 06:08:13;;;;;;;13.02;6.70;;;;;;;20.76;55.21;98609.72;4486522;31;20156;-76
2023/09/30 06:10:43;;;;;;;14.50;7.15;;;;;;;20.58;57.18;98601.44;4488333;32;20103;-76
2023/09/30 06:13:13;;;;;;;12.48;6.10;;;;;;;21.20;55.47;98614.19;4487678;32;20120;-76
2023/09/30 06:15:41;;;;;;;28.50;7.37;;;;;;;21.27;54.84;98615.44;4487166;32;20108;-76
2023/09/30 06:18:13;;;;;;;13.02;6.80;;;;;;;20.73;57.04;98612.56;4488871;31;20453;-76
2023/09/30 06:20:41;;;;;;;15.10;6.93;;;;;;;20.72;58.13;98624.00;4487717;32;20073;-76
2023/09/30 06:23:09;;;;;;;14.93;6.72;;;;;;;20.59;58.23;98631.09;4488225;31;20092;-76
2023/09/30 06:25:37;;;;;;;13.88;6.25;;;;;;;20.31;59.41;98629.66;4488704;31;20119;-76
2023/09/30 06:28:04;;;;;;;18.48;7.20;;;;;;;21.43;55.05;98638.69;4488352;31;20096;-76
2023/09/30 06:30:33;;;;;;;12.30;6.35;;;;;;;21.32;55.50;98649.19;4488285;32;20106;-76
2023/09/30 06:33:04;;;;;;;17.50;6.80;;;;;;;21.35;55.65;98647.16;4488590;31;20099;-76
2023/09/30 06:35:37;;;;;;;13.85;6.70;;;;;;;21.19;56.66;98659.75;4487639;32;20104;-76
2023/09/30 06:38:06;;;;;;;13.90;6.78;;;;;;;21.12;56.83;98660.34;4488415;31;20084;-76
2023/09/30 06:40:34;;;;;;;12.57;6.43;;;;;;;20.88;58.15;98652.53;4488551;31;20084;-76
2023/09/30 06:43:05;;;;;;;12.73;6.55;;;;;;;21.02;57.81;98661.03;4488178;31;20135;-76
2023/09/30 06:45:32;;;;;;;12.68;6.20;;;;;;;21.64;55.30;98665.91;4487384;32;20152;-76
2023/09/30 06:48:00;;;;;;;17.10;6.35;;;;;;;21.79;54.85;98665.63;4488529;31;20115;-76
2023/09/30 06:50:27;;;;;;;20.25;6.50;;;;;;;22.10;54.04;98664.06;4488206;31;20131;-76
2023/09/30 06:52:54;;;;;;;13.95;6.05;;;;;;;21.92;54.59;98664.56;4488386;31;20089;-76
2023/09/30 06:55:21;;;;;;;13.40;5.55;;;;;;;22.01;54.55;98665.63;4487071;32;20168;-76
2023/09/30 06:57:48;;;;;;;12.70;6.00;;;;;;;22.59;53.72;98668.81;4488181;31;20155;-77
2023/09/30 07:00:16;;;;;;;12.63;5.40;;;;;;;22.76;53.34;98675.34;4487253;32;20072;-77
2023/09/30 07:02:44;;;;;;;11.73;5.78;;;;;;;23.27;51.53;98682.47;4488334;31;20112;-77
2023/09/30 07:05:12;;;;;;;11.68;5.45;;;;;;;23.70;49.89;98679.66;4487970;31;20355;-77
2023/09/30 07:07:41;;;;;;;11.48;5.80;;;;;;;24.13;48.29;98686.44;4488259;31;20076;-77
2023/09/30 07:10:09;;;;;;;11.82;5.47;;;;;;;24.14;48.25;98683.69;4488385;32;20135;-77
2023/09/30 07:12:36;;;;;;;12.02;5.78;;;;;;;24.03;48.94;98682.94;4487914;32;20092;-77
2023/09/30 07:15:05;;;;;;;12.70;5.30;;;;;;;24.48;47.29;98680.72;4488376;31;20164;-77
2023/09/30 07:17:33;;;;;;;12.70;5.78;;;;;;;25.07;46.24;98685.00;4488258;31;20126;-77
2023/09/30 07:20:04;;;;;;;14.77;5.75;;;;;;;25.08;46.44;98692.78;4487819;31;20076;-77
2023/09/30 07:22:33;;;;;;;13.00;5.53;;;;;;;;;;4487113;31;20108;-77
2023/09/30 07:25:18;;;;;;;12.98;5.78;;;;;;;25.87;46.37;98696.91;4487049;32;20536;-77
2023/09/30 07:27:46;;;;;;;9.40;5.25;;;;;;;25.28;47.58;98690.94;4486762;32;20111;-77
2023/09/30 07:30:14;;;;;;;10.48;5.00;;;;;;;25.20;47.81;98688.22;4488255;32;20177;-77
2023/09/30 07:32:43;;;;;;;14.30;5.25;;;;;;;24.94;47.98;98687.94;4486542;31;20108;-77
2023/09/30 07:35:11;;;;;;;13.82;5.05;;;;;;;25.06;48.07;98688.63;4488188;31;20804;-77
2023/09/30 07:37:38;;;;;;;11.52;4.85;;;;;;;24.93;48.04;98696.00;4488094;31;20140;-77
2023/09/30 07:40:06;;;;;;;14.07;5.95;;;;;;;25.10;48.31;98695.31;4487893;32;20088;-77
2023/09/30 07:42:33;;;;;;;10.88;5.12;;;;;;;24.79;49.49;98690.16;4488072;31;20155;-77
2023/09/30 07:45:01;;;;;;;11.20;5.07;;;;;;;24.61;50.12;98704.19;4486969;32;20126;-77
2023/09/30 07:47:28;;;;;;;14.43;5.50;;;;;;;25.57;48.52;98696.16;4487650;32;20436;-77
2023/09/30 07:49:55;;;;;;;11.68;5.30;;;;;;;24.11;51.65;98691.03;4488019;31;20466;-77
2023/09/30 07:52:22;;;;;;;13.10;5.53;;;;;;;24.42;52.14;98695.28;4488022;31;20127;-77
2023/09/30 07:54:49;;;;;;;13.93;5.35;;;;;;;24.02;54.20;98707.66;4486438;32;20109;-77
2023/09/30 07:57:16;;;;;;;13.32;6.10;;;;;;;23.90;54.38;98706.91;4487982;32;20081;-77
2023/09/30 07:59:43;;;;;;;13.75;5.93;;;;;;;23.35;56.61;98711.63;4488101;31;20088;-77
2023/09/30 08:02:10;;;;;;;14.15;5.95;;;;;;;23.34;57.25;98697.63;4487622;31;20103;-77
2023/09/30 08:04:37;;;;;;;13.90;5.65;;;;;;;22.45;61.31;98700.69;4488060;31;20136;-76
2023/09/30 08:07:04;;;;;;;15.60;5.95;;;;;;;22.83;60.52;98710.69;4487719;31;20545;-76
2023/09/30 08:09:31;;;;;;;15.75;5.90;;;;;;;22.35;62.40;98705.00;4487852;31;20143;-76
2023/09/30 08:11:58;;;;;;;13.93;6.03;;;;;;;22.00;64.40;98702.50;4486648;31;20366;-76
2023/09/30 08:14:25;;;;;;;14.55;5.53;;;;;;;22.12;63.84;98698.97;4487545;32;20475;-76
2023/09/30 08:16:52;;;;;;;13.10;5.37;;;;;;;22.06;64.20;98694.16;4486872;32;20124;-76
2023/09/30 08:19:20;;;;;;;13.57;6.45;;;;;;;22.36;64.35;98704.06;4487944;31;20149;-76
2023/09/30 08:21:47;;;;;;;13.62;6.05;;;;;;;23.31;60.21;98700.53;4487504;31;20088;-76
2023/09/30 08:24:14;;;;;;;12.75;5.65;;;;;;;24.12;58.28;98704.06;4487629;31;20111;-77
2023/09/30 08:26:41;;;;;;;14.55;5.60;;;;;;;24.07;57.75;98702.81;4487901;32;20781;-77
2023/09/30 08:29:08;;;;;;;25.85;6.93;;;;;;;24.07;57.47;98694.91;4487240;32;20183;-76
2023/09/30 08:31:35;;;;;;;15.30;6.03;;;;;;;24.03;57.58;98702.28;4487630;31;20104;-77
2023/09/30 08:34:03;;;;;;;16.60;6.18;;;;;;;23.92;57.34;98695.25;4486333;31;20181;-76
2023/09/30 08:36:31;;;;;;;13.27;5.53;;;;;;;24.42;55.54;98695.28;4486162;32;20116;-76
2023/09/30 08:38:58;;;;;;;12.25;5.78;;;;;;;24.35;55.27;98686.28;4487823;31;20092;-76
2023/09/30 08:41:32;;;;;;;17.58;5.95;;;;;;;24.11;55.69;98691.84;4487808;31;20118;-76
2023/09/30 08:44:01;;;;;;;12.98;5.65;;;;;;;24.12;55.93;98688.25;4487315;31;20104;-77
2023/09/30 08:46:33;;;;;;;17.35;5.90;;;;;;;24.49;55.77;98696.41;4486314;32;20152;-76
2023/09/30 08:49:03;;;;;;;15.32;6.35;;;;;;;25.06;54.22;98699.19;4487255;31;20184;-76
2023/09/30 08:51:30;;;;;;;15.55;6.12;;;;;;;25.92;51.81;98699.94;4487515;31;20100;-76
2023/09/30 08:53:59;;;;;;;15.70;6.10;;;;;;;26.55;50.14;98707.09;4487289;31;20423;-76
2023/09/30 08:56:28;;;;;;;14.85;5.45;;;;;;;26.48;49.32;98698.94;4485985;32;20167;-76
2023/09/30 08:58:58;;;;;;;17.23;6.20;;;;;;;25.63;51.92;98702.69;4486166;32;20140;-76
2023/09/30 09:01:27;;;;;;;13.40;6.03;;;;;;;24.48;55.35;98700.03;4487636;31;20714;-76
2023/09/30 09:03:55;;;;;;;14.48;6.40;;;;;;;24.62;54.75;98677.66;4487052;31;20084;-76
2023/09/30 09:06:23;;;;;;;17.75;5.82;;;;;;;24.90;54.48;98706.84;4486511;32;20104;-76
2023/09/30 09:08:51;;;;;;;17.65;5.85;;;;;;;25.40;50.81;98702.19;4487376;31;20161;-76
2023/09/30 09:11:18;;;;;;;17.12;7.05;;;;;;;24.46;52.75;98694.06;4487007;31;20689;-75
2023/09/30 09:13:56;;;;;;;18.75;6.80;;;;;;;23.98;53.82;98693.09;4487388;31;20080;-76
2023/09/30 09:16:23;;;;;;;20.23;6.18;;;;;;;24.13;53.60;98705.72;4487345;31;20099;-76
2023/09/30 09:18:50;;;;;;;18.02;6.68;;;;;;;23.65;55.48;98692.41;4487070;31;20108;-76
2023/09/30 09:21:22;;;;;;;18.27;7.60;;;;;;;23.56;56.10;98698.44;4473477;32;20119;-76
2023/09/30 09:23:54;;;;;;;22.25;6.45;;;;;;;24.21;54.87;98699.78;4486289;32;20168;-76
2023/09/30 09:26:34;;;;;;;17.35;5.22;;;;;;;24.12;54.54;98705.87;4487155;32;20107;-76
2023/09/30 09:29:03;;;;;;;20.15;7.05;;;;;;;23.77;55.57;98701.06;4487062;31;20156;-76
2023/09/30 09:31:35;;;;;;;17.92;6.57;;;;;;;23.65;56.01;98705.59;4485730;32;20161;-76
2023/09/30 09:34:14;;;;;;;18.40;6.37;;;;;;;23.70;56.82;98705.16;4473118;32;20123;-76
2023/09/30 09:36:42;;;;;;;20.73;6.37;;;;;;;24.06;55.91;98702.00;4487260;31;20080;-76
2023/09/30 09:39:20;;;;;;;18.25;7.10;;;;;;;24.04;56.00;98696.03;4486901;31;20157;-76
2023/09/30 09:41:56;;;;;;;17.42;6.80;;;;;;;24.16;55.33;98720.47;4487279;31;20119;-76
2023/09/30 09:44:25;;;;;;;19.30;5.97;;;;;;;24.51;54.66;98712.94;4486006;31;20123;-75
2023/09/30 09:46:52;;;;;;;17.70;6.50;;;;;;;25.30;52.38;98712.75;4486861;31;20103;-76
2023/09/30 09:49:20;;;;;;;18.62;6.65;;;;;;;24.57;52.91;98708.09;4487069;31;20076;-76
2023/09/30 09:51:48;;;;;;;19.45;7.00;;;;;;;24.71;52.52;98702.38;4487066;31;20104;-76
2023/09/30 09:54:16;;;;;;;19.55;7.43;;;;;;;25.19;51.56;98706.81;4486475;31;20080;-76
2023/09/30 09:56:44;;;;;;;16.83;5.95;;;;;;;25.18;50.84;98705.97;4487141;31;20426;-76
2023/09/30 09:59:12;;;;;;;20.42;7.00;;;;;;;24.45;51.47;98700.28;4486997;31;20081;-76
2023/09/30 10:01:43;;;;;;;19.05;7.50;;;;;;;24.07;53.06;98708.94;4486903;31;20135;-76
2023/09/30 10:04:15;;;;;;;21.20;7.57;;;;;;;24.21;52.89;98700.63;4485706;32;20379;-75
2023/09/30 10:06:45;;;;;;;18.90;6.87;;;;;;;23.57;53.72;98702.72;4486536;31;20088;-76
2023/09/30 10:09:14;;;;;;;21.60;8.07;;;;;;;23.54;53.13;98688.03;4485482;32;20080;-76
2023/09/30 10:11:41;;;;;;;24.37;7.25;;;;;;;22.94;55.58;98691.41;4472503;32;20481;-76
2023/09/30 10:14:14;;;;;;;19.30;7.15;;;;;;;23.05;55.91;98699.25;4486095;31;20092;-76
2023/09/30 10:16:44;;;;;;;17.08;5.70;;;;;;;23.36;55.00;98700.13;4485655;32;20104;-76
2023/09/30 10:19:13;;;;;;;18.77;6.47;;;;;;;23.44;54.80;98707.38;4486461;31;20107;-76
2023/09/30 10:22:27;;;;;;;21.37;7.20;;;;;;;23.79;54.83;98692.03;4484741;32;20155;-76
2023/09/30 10:25:33;;;;;;;20.17;6.68;;;;;;;23.79;54.46;98689.41;4486274;32;20779;-76
2023/09/30 10:28:00;;;;;;;21.85;6.62;;;;;;;24.46;53.17;98669.47;4484620;32;20099;-75
2023/09/30 10:30:27;;;;;;;18.10;6.15;;;;;;;24.67;51.36;98691.28;4486475;31;20132;-76
2023/09/30 10:33:12;;;;;;;20.37;7.30;;;;;;;25.76;48.80;98686.53;4486190;31;20164;-76
2023/09/30 10:35:44;;;;;;;21.40;7.18;;;;;;;25.98;47.63;98686.12;4485862;32;20096;-77
2023/09/30 10:38:27;;;;;;;18.12;6.18;;;;;;;26.06;47.71;98686.25;4486566;31;20104;-77
2023/09/30 10:40:57;;;;;;;24.30;7.50;;;;;;;27.21;45.50;98680.19;4486547;31;20080;-77
2023/09/30 10:43:35;;;;;;;25.02;8.10;;;;;;;27.45;44.82;98677.72;4484829;32;20406;-77
2023/09/30 10:46:23;;;;;;;20.05;7.12;;;;;;;26.31;45.28;98675.91;4485252;32;20104;-76
2023/09/30 10:48:51;;;;;;;23.90;8.15;;;;;;;25.64;46.69;98677.94;4477747;31;20093;-77
2023/09/30 10:51:21;;;;;;;21.90;7.75;;;;;;;24.93;48.60;98667.78;4485113;32;20100;-77
2023/09/30 10:53:52;;;;;;;23.05;8.18;;;;;;;24.38;50.81;98683.34;4484968;32;20159;-77
2023/09/30 10:56:20;;;;;;;23.00;7.65;;;;;;;24.26;50.82;98683.59;4487350;31;20093;-77
2023/09/30 10:58:46;;;;;;;22.58;7.80;;;;;;;24.56;50.58;98694.03;4488464;31;20102;-76
2023/09/30 11:01:17;;;;;;;20.33;6.90;;;;;;;24.57;50.57;98684.34;4488421;31;20148;-77
2023/09/30 11:03:45;;;;;;;24.12;8.20;;;;;;;24.87;50.29;98694.72;4488047;31;20100;-76
2023/09/30 11:06:17;;;;;;;20.30;7.35;;;;;;;23.85;53.30;98695.97;4488277;31;20104;-77
2023/09/30 11:08:51;;;;;;;19.65;6.75;;;;;;;23.72;53.18;98696.19;4488414;31;20085;-77
2023/09/30 11:11:18;;;;;;;22.67;7.43;;;;;;;23.91;52.57;98688.34;4473773;32;20144;-77
2023/09/30 11:13:45;;;;;;;20.40;7.70;;;;;;;23.29;55.13;98676.13;4487055;31;20238;-77
2023/09/30 11:16:12;;;;;;;22.08;7.00;;;;;;;23.86;53.81;98676.53;4488252;31;20431;-78
2023/09/30 11:18:39;;;;;;;18.87;6.93;;;;;;;24.23;51.69;98674.13;4487911;31;20130;-77
2023/09/30 11:21:12;;;;;;;17.90;6.78;;;;;;;23.70;53.77;98677.03;4488397;31;20132;-77
2023/09/30 11:23:41;;;;;;;22.15;7.62;;;;;;;24.03;52.65;98669.78;4487943;31;20168;-77
2023/09/30 11:26:08;;;;;;;20.95;7.95;;;;;;;24.05;53.13;98663.41;4487064;32;20185;-77
2023/09/30 11:28:39;;;;;;;21.48;7.75;;;;;;;24.36;50.62;98666.00;4487919;31;20081;-77
2023/09/30 11:31:17;;;;;;;21.30;8.88;;;;;;;24.04;51.49;98671.47;4486745;32;20439;-77
2023/09/30 11:33:50;;;;;;;21.70;7.90;;;;;;;23.95;51.14;98671.31;4488254;31;20105;-77